sensor_id;sensor_type;location;lat;lon;timestamp;temperature;humidity
57636;DHT22;43465;50.728;4.160;2022-12-13T00:01:56;-0.10;99.90
57636;DHT22;43465;50.728;4.160;2022-12-13T00:04:22;-0.10;99.90
57636;DHT22;43465;50.728;4.160;2022-12-13T00:06:49;-0.10;99.90
57636;DHT22;43465;50.728;4.160;2022-12-13T00:09:16;-0.10;99.90
57636;DHT22;43465;50.728;4.160;2022-12-13T00:11:43;-0.20;99.90
57636;DHT22;43465;50.728;4.160;2022-12-13T00:14:10;-0.10;99.90
57636;DHT22;43465;50.728;4.160;2022-12-13T00:16:38;-0.10;99.90
57636;DHT22;43465;50.728;4.160;2022-12-13T00:19:04;-0.10;99.90
57636;DHT22;43465;50.728;4.160;2022-12-13T00:21:31;-0.10;99.90
57636;DHT22;43465;50.728;4.160;2022-12-13T00:23:58;-0.10;99.90
57636;DHT22;43465;50.728;4.160;2022-12-13T00:26:27;-0.10;99.90
57636;DHT22;43465;50.728;4.160;2022-12-13T00:28:54;0.00;99.90
57636;DHT22;43465;50.728;4.160;2022-12-13T00:31:22;-0.30;99.90
57636;DHT22;43465;50.728;4.160;2022-12-13T00:33:48;-0.10;99.90
57636;DHT22;43465;50.728;4.160;2022-12-13T00:36:14;-0.30;99.90
57636;DHT22;43465;50.728;4.160;2022-12-13T00:38:40;-0.30;99.90
57636;DHT22;43465;50.728;4.160;2022-12-13T00:41:16;-0.30;99.90
57636;DHT22;43465;50.728;4.160;2022-12-13T00:43:43;-0.30;99.90
57636;DHT22;43465;50.728;4.160;2022-12-13T00:46:14;-0.20;99.90
57636;DHT22;43465;50.728;4.160;2022-12-13T00:48:41;-0.20;99.90
57636;DHT22;43465;50.728;4.160;2022-12-13T00:51:08;-0.20;99.90
57636;DHT22;43465;50.728;4.160;2022-12-13T00:53:34;-0.30;99.90
57636;DHT22;43465;50.728;4.160;2022-12-13T00:56:00;-0.30;99.90
57636;DHT22;43465;50.728;4.160;2022-12-13T00:58:26;-0.30;99.90
57636;DHT22;43465;50.728;4.160;2022-12-13T01:00:51;-0.20;99.90
57636;DHT22;43465;50.728;4.160;2022-12-13T01:03:17;-0.40;99.90
57636;DHT22;43465;50.728;4.160;2022-12-13T01:05:50;-0.30;99.90
57636;DHT22;43465;50.728;4.160;2022-12-13T01:08:15;-0.30;99.90
57636;DHT22;43465;50.728;4.160;2022-12-13T01:10:45;-0.30;99.90
57636;DHT22;43465;50.728;4.160;2022-12-13T01:13:12;-0.40;99.90
57636;DHT22;43465;50.728;4.160;2022-12-13T01:15:43;-0.50;99.90
57636;DHT22;43465;50.728;4.160;2022-12-13T01:18:10;-0.50;99.90
57636;DHT22;43465;50.728;4.160;2022-12-13T01:20:36;-0.40;99.90
57636;DHT22;43465;50.728;4.160;2022-12-13T01:23:02;-0.40;99.90
57636;DHT22;43465;50.728;4.160;2022-12-13T01:25:28;-0.40;99.90
57636;DHT22;43465;50.728;4.160;2022-12-13T01:27:54;-0.40;99.90
57636;DHT22;43465;50.728;4.160;2022-12-13T01:30:20;-0.40;99.90
57636;DHT22;43465;50.728;4.160;2022-12-13T01:32:45;-0.40;99.90
57636;DHT22;43465;50.728;4.160;2022-12-13T01:35:11;-0.30;99.90
57636;DHT22;43465;50.728;4.160;2022-12-13T01:37:38;-0.30;99.90
57636;DHT22;43465;50.728;4.160;2022-12-13T01:40:04;-0.40;99.90
57636;DHT22;43465;50.728;4.160;2022-12-13T01:42:30;-0.40;99.90
57636;DHT22;43465;50.728;4.160;2022-12-13T01:45:00;-0.30;99.90
57636;DHT22;43465;50.728;4.160;2022-12-13T01:47:35;-0.40;99.90
57636;DHT22;43465;50.728;4.160;2022-12-13T01:50:09;-0.40;99.90
57636;DHT22;43465;50.728;4.160;2022-12-13T01:52:36;-0.40;99.90
57636;DHT22;43465;50.728;4.160;2022-12-13T01:55:04;-0.40;99.90
57636;DHT22;43465;50.728;4.160;2022-12-13T01:57:32;-0.50;99.90
57636;DHT22;43465;50.728;4.160;2022-12-13T02:00:02;-0.40;99.90
57636;DHT22;43465;50.728;4.160;2022-12-13T02:02:28;-0.40;99.90
57636;DHT22;43465;50.728;4.160;2022-12-13T02:05:20;-0.50;99.90
57636;DHT22;43465;50.728;4.160;2022-12-13T02:07:47;-0.50;99.90
57636;DHT22;43465;50.728;4.160;2022-12-13T02:10:13;-0.50;99.90
57636;DHT22;43465;50.728;4.160;2022-12-13T02:12:40;-0.50;99.90
57636;DHT22;43465;50.728;4.160;2022-12-13T02:15:09;-0.50;99.90
57636;DHT22;43465;50.728;4.160;2022-12-13T02:17:48;-0.50;99.90
57636;DHT22;43465;50.728;4.160;2022-12-13T02:25:23;-0.50;99.90
57636;DHT22;43465;50.728;4.160;2022-12-13T02:28:34;-0.40;99.90
57636;DHT22;43465;50.728;4.160;2022-12-13T02:31:22;-0.40;99.90
57636;DHT22;43465;50.728;4.160;2022-12-13T02:34:19;-0.40;99.90
57636;DHT22;43465;50.728;4.160;2022-12-13T02:36:50;-0.50;99.90
57636;DHT22;43465;50.728;4.160;2022-12-13T02:39:24;-0.40;99.90
57636;DHT22;43465;50.728;4.160;2022-12-13T02:42:00;-0.40;99.90
57636;DHT22;43465;50.728;4.160;2022-12-13T02:44:35;-0.50;99.90
57636;DHT22;43465;50.728;4.160;2022-12-13T02:47:02;-0.50;99.90
57636;DHT22;43465;50.728;4.160;2022-12-13T02:49:32;-0.40;99.90
57636;DHT22;43465;50.728;4.160;2022-12-13T02:51:59;-0.40;99.90
57636;DHT22;43465;50.728;4.160;2022-12-13T02:54:25;-0.30;99.90
57636;DHT22;43465;50.728;4.160;2022-12-13T02:56:58;-0.20;99.90
57636;DHT22;43465;50.728;4.160;2022-12-13T02:59:34;-0.10;99.90
57636;DHT22;43465;50.728;4.160;2022-12-13T03:02:21;-0.10;99.90
57636;DHT22;43465;50.728;4.160;2022-12-13T03:13:27;-0.40;99.90
57636;DHT22;43465;50.728;4.160;2022-12-13T03:16:42;-0.50;99.90
57636;DHT22;43465;50.728;4.160;2022-12-13T03:19:10;-0.70;99.90
57636;DHT22;43465;50.728;4.160;2022-12-13T03:24:04;-0.90;99.90
57636;DHT22;43465;50.728;4.160;2022-12-13T03:26:29;-0.80;99.90
57636;DHT22;43465;50.728;4.160;2022-12-13T03:28:55;-0.80;99.90
57636;DHT22;43465;50.728;4.160;2022-12-13T03:31:21;-0.80;99.90
57636;DHT22;43465;50.728;4.160;2022-12-13T03:33:47;-0.80;99.90
57636;DHT22;43465;50.728;4.160;2022-12-13T03:36:13;-0.90;99.90
57636;DHT22;43465;50.728;4.160;2022-12-13T03:38:39;-1.00;99.90
57636;DHT22;43465;50.728;4.160;2022-12-13T03:41:12;-0.90;99.90
57636;DHT22;43465;50.728;4.160;2022-12-13T03:43:38;-0.90;99.90
57636;DHT22;43465;50.728;4.160;2022-12-13T03:46:05;-0.90;99.90
57636;DHT22;43465;50.728;4.160;2022-12-13T03:48:32;-0.90;99.90
57636;DHT22;43465;50.728;4.160;2022-12-13T03:50:57;-1.00;99.90
57636;DHT22;43465;50.728;4.160;2022-12-13T03:53:23;-0.90;99.90
57636;DHT22;43465;50.728;4.160;2022-12-13T03:55:49;-0.90;99.90
57636;DHT22;43465;50.728;4.160;2022-12-13T03:58:15;-0.80;99.90
57636;DHT22;43465;50.728;4.160;2022-12-13T04:00:41;-0.80;99.90
57636;DHT22;43465;50.728;4.160;2022-12-13T04:03:07;-0.80;99.90
57636;DHT22;43465;50.728;4.160;2022-12-13T04:05:32;-0.90;99.90
57636;DHT22;43465;50.728;4.160;2022-12-13T04:07:58;-1.10;99.90
57636;DHT22;43465;50.728;4.160;2022-12-13T04:10:24;-1.10;99.90
57636;DHT22;43465;50.728;4.160;2022-12-13T04:12:50;-1.00;99.90
57636;DHT22;43465;50.728;4.160;2022-12-13T04:15:34;-1.00;99.90
57636;DHT22;43465;50.728;4.160;2022-12-13T04:18:00;-0.90;99.90
57636;DHT22;43465;50.728;4.160;2022-12-13T04:20:26;-0.90;99.90
57636;DHT22;43465;50.728;4.160;2022-12-13T04:22:51;-1.00;99.90
57636;DHT22;43465;50.728;4.160;2022-12-13T04:25:17;-1.10;99.90
57636;DHT22;43465;50.728;4.160;2022-12-13T04:27:45;-1.10;99.90
57636;DHT22;43465;50.728;4.160;2022-12-13T04:30:11;-1.10;99.90
57636;DHT22;43465;50.728;4.160;2022-12-13T04:32:40;-1.10;99.90
57636;DHT22;43465;50.728;4.160;2022-12-13T04:35:06;-1.10;99.90
57636;DHT22;43465;50.728;4.160;2022-12-13T04:37:31;-1.10;99.90
57636;DHT22;43465;50.728;4.160;2022-12-13T04:39:57;-1.10;99.90
57636;DHT22;43465;50.728;4.160;2022-12-13T04:42:23;-1.10;99.90
57636;DHT22;43465;50.728;4.160;2022-12-13T04:44:48;-1.20;99.90
57636;DHT22;43465;50.728;4.160;2022-12-13T04:47:15;-1.10;99.90
57636;DHT22;43465;50.728;4.160;2022-12-13T04:49:40;-1.20;99.90
57636;DHT22;43465;50.728;4.160;2022-12-13T04:52:06;-1.20;99.90
57636;DHT22;43465;50.728;4.160;2022-12-13T04:54:32;-1.20;99.90
57636;DHT22;43465;50.728;4.160;2022-12-13T04:56:58;-1.20;99.90
57636;DHT22;43465;50.728;4.160;2022-12-13T04:59:24;-1.20;99.90
57636;DHT22;43465;50.728;4.160;2022-12-13T05:01:49;-1.10;99.90
57636;DHT22;43465;50.728;4.160;2022-12-13T05:04:15;-1.10;99.90
57636;DHT22;43465;50.728;4.160;2022-12-13T05:06:41;-1.10;99.90
57636;DHT22;43465;50.728;4.160;2022-12-13T05:09:06;-1.20;99.90
57636;DHT22;43465;50.728;4.160;2022-12-13T05:11:32;-1.20;99.90
57636;DHT22;43465;50.728;4.160;2022-12-13T05:13:58;-1.20;99.90
57636;DHT22;43465;50.728;4.160;2022-12-13T05:16:24;-1.20;99.90
57636;DHT22;43465;50.728;4.160;2022-12-13T05:18:50;-1.20;99.90
57636;DHT22;43465;50.728;4.160;2022-12-13T05:21:16;-1.20;99.90
57636;DHT22;43465;50.728;4.160;2022-12-13T05:23:45;-1.20;99.90
57636;DHT22;43465;50.728;4.160;2022-12-13T05:26:10;-1.20;99.90
57636;DHT22;43465;50.728;4.160;2022-12-13T05:28:36;-1.10;99.90
57636;DHT22;43465;50.728;4.160;2022-12-13T05:31:07;-1.10;99.90
57636;DHT22;43465;50.728;4.160;2022-12-13T05:33:33;-1.20;99.90
57636;DHT22;43465;50.728;4.160;2022-12-13T05:35:59;-1.20;99.90
57636;DHT22;43465;50.728;4.160;2022-12-13T05:38:24;-1.20;99.90
57636;DHT22;43465;50.728;4.160;2022-12-13T05:40:50;-1.20;99.90
57636;DHT22;43465;50.728;4.160;2022-12-13T05:43:15;-1.30;99.90
57636;DHT22;43465;50.728;4.160;2022-12-13T05:45:41;-1.30;99.90
57636;DHT22;43465;50.728;4.160;2022-12-13T05:48:07;-1.40;99.90
57636;DHT22;43465;50.728;4.160;2022-12-13T05:50:33;-1.40;99.90
57636;DHT22;43465;50.728;4.160;2022-12-13T05:52:59;-1.40;99.90
57636;DHT22;43465;50.728;4.160;2022-12-13T05:55:25;-1.40;99.90
57636;DHT22;43465;50.728;4.160;2022-12-13T05:57:51;-1.40;99.90
57636;DHT22;43465;50.728;4.160;2022-12-13T06:00:17;-1.40;99.90
57636;DHT22;43465;50.728;4.160;2022-12-13T06:02:43;-1.40;99.90
57636;DHT22;43465;50.728;4.160;2022-12-13T06:05:10;-1.50;99.90
57636;DHT22;43465;50.728;4.160;2022-12-13T06:07:36;-1.50;99.90
57636;DHT22;43465;50.728;4.160;2022-12-13T06:10:04;-1.30;99.90
57636;DHT22;43465;50.728;4.160;2022-12-13T06:12:30;-1.40;99.90
57636;DHT22;43465;50.728;4.160;2022-12-13T06:14:56;-1.30;99.90
57636;DHT22;43465;50.728;4.160;2022-12-13T06:17:21;-1.40;99.90
57636;DHT22;43465;50.728;4.160;2022-12-13T06:19:52;-1.40;99.90
57636;DHT22;43465;50.728;4.160;2022-12-13T06:22:17;-1.40;99.90
57636;DHT22;43465;50.728;4.160;2022-12-13T06:24:43;-1.40;99.90
57636;DHT22;43465;50.728;4.160;2022-12-13T06:27:09;-1.40;99.90
57636;DHT22;43465;50.728;4.160;2022-12-13T06:29:35;-1.30;99.90
57636;DHT22;43465;50.728;4.160;2022-12-13T06:32:01;-1.30;99.90
57636;DHT22;43465;50.728;4.160;2022-12-13T06:34:28;-1.30;99.90
57636;DHT22;43465;50.728;4.160;2022-12-13T06:36:53;-1.30;99.90
57636;DHT22;43465;50.728;4.160;2022-12-13T06:39:19;-1.30;99.90
57636;DHT22;43465;50.728;4.160;2022-12-13T06:41:45;-1.40;99.90
57636;DHT22;43465;50.728;4.160;2022-12-13T06:44:11;-1.40;99.90
57636;DHT22;43465;50.728;4.160;2022-12-13T06:46:37;-1.40;99.90
57636;DHT22;43465;50.728;4.160;2022-12-13T06:49:03;-1.40;99.90
57636;DHT22;43465;50.728;4.160;2022-12-13T06:51:29;-1.40;99.90
57636;DHT22;43465;50.728;4.160;2022-12-13T06:53:55;-1.40;99.90
57636;DHT22;43465;50.728;4.160;2022-12-13T06:56:21;-1.30;99.90
57636;DHT22;43465;50.728;4.160;2022-12-13T06:58:47;-1.30;99.90
57636;DHT22;43465;50.728;4.160;2022-12-13T07:01:17;-1.30;99.90
57636;DHT22;43465;50.728;4.160;2022-12-13T07:03:43;-1.20;99.90
57636;DHT22;43465;50.728;4.160;2022-12-13T07:06:21;-1.20;99.90
57636;DHT22;43465;50.728;4.160;2022-12-13T07:08:53;-1.30;99.90
57636;DHT22;43465;50.728;4.160;2022-12-13T07:11:23;-1.30;99.90
57636;DHT22;43465;50.728;4.160;2022-12-13T07:13:50;-1.20;99.90
57636;DHT22;43465;50.728;4.160;2022-12-13T07:16:16;-1.20;99.90
57636;DHT22;43465;50.728;4.160;2022-12-13T07:18:42;-1.20;99.90
57636;DHT22;43465;50.728;4.160;2022-12-13T07:21:10;-1.20;99.90
57636;DHT22;43465;50.728;4.160;2022-12-13T07:23:37;-1.30;99.90
57636;DHT22;43465;50.728;4.160;2022-12-13T07:26:04;-1.30;99.90
57636;DHT22;43465;50.728;4.160;2022-12-13T07:28:34;-1.30;99.90
57636;DHT22;43465;50.728;4.160;2022-12-13T07:31:01;-1.30;99.90
57636;DHT22;43465;50.728;4.160;2022-12-13T07:33:27;-1.40;99.90
57636;DHT22;43465;50.728;4.160;2022-12-13T07:36:04;-1.40;99.90
57636;DHT22;43465;50.728;4.160;2022-12-13T07:38:34;-1.30;99.90
57636;DHT22;43465;50.728;4.160;2022-12-13T07:41:00;-1.40;99.90
57636;DHT22;43465;50.728;4.160;2022-12-13T07:43:26;-1.40;99.90
57636;DHT22;43465;50.728;4.160;2022-12-13T07:45:53;-1.40;99.90
57636;DHT22;43465;50.728;4.160;2022-12-13T07:48:22;-1.30;99.90
57636;DHT22;43465;50.728;4.160;2022-12-13T07:50:47;-1.30;99.90
57636;DHT22;43465;50.728;4.160;2022-12-13T07:53:13;-1.30;99.90
57636;DHT22;43465;50.728;4.160;2022-12-13T07:55:39;-1.30;99.90
57636;DHT22;43465;50.728;4.160;2022-12-13T07:58:06;-1.30;99.90
57636;DHT22;43465;50.728;4.160;2022-12-13T08:00:32;-1.30;99.90
57636;DHT22;43465;50.728;4.160;2022-12-13T08:02:58;-1.20;99.90
57636;DHT22;43465;50.728;4.160;2022-12-13T08:05:24;-1.20;99.90
57636;DHT22;43465;50.728;4.160;2022-12-13T08:07:50;-1.20;99.90
57636;DHT22;43465;50.728;4.160;2022-12-13T08:10:15;-1.20;99.90
57636;DHT22;43465;50.728;4.160;2022-12-13T08:12:41;-1.20;99.90
57636;DHT22;43465;50.728;4.160;2022-12-13T08:15:07;-1.10;99.90
57636;DHT22;43465;50.728;4.160;2022-12-13T08:17:33;-1.00;99.90
57636;DHT22;43465;50.728;4.160;2022-12-13T08:19:59;-0.80;99.90
57636;DHT22;43465;50.728;4.160;2022-12-13T08:22:24;-0.90;99.90
57636;DHT22;43465;50.728;4.160;2022-12-13T08:24:50;-0.90;99.90
57636;DHT22;43465;50.728;4.160;2022-12-13T08:27:16;-0.90;99.90
57636;DHT22;43465;50.728;4.160;2022-12-13T08:29:42;-0.90;99.90
57636;DHT22;43465;50.728;4.160;2022-12-13T08:32:10;-0.90;99.90
57636;DHT22;43465;50.728;4.160;2022-12-13T08:34:36;-0.80;99.90
57636;DHT22;43465;50.728;4.160;2022-12-13T08:37:02;-0.80;99.90
57636;DHT22;43465;50.728;4.160;2022-12-13T08:39:28;-0.70;99.90
57636;DHT22;43465;50.728;4.160;2022-12-13T08:41:54;-0.60;99.90
57636;DHT22;43465;50.728;4.160;2022-12-13T08:44:20;-0.50;99.90
57636;DHT22;43465;50.728;4.160;2022-12-13T08:46:45;-0.50;99.90
57636;DHT22;43465;50.728;4.160;2022-12-13T08:49:11;-0.40;99.90
57636;DHT22;43465;50.728;4.160;2022-12-13T08:51:37;-0.40;99.90
57636;DHT22;43465;50.728;4.160;2022-12-13T08:54:02;-0.20;99.90
57636;DHT22;43465;50.728;4.160;2022-12-13T08:56:28;-0.30;99.90
57636;DHT22;43465;50.728;4.160;2022-12-13T08:58:54;-0.20;99.90
57636;DHT22;43465;50.728;4.160;2022-12-13T09:01:19;-0.20;99.90
57636;DHT22;43465;50.728;4.160;2022-12-13T09:03:45;-0.10;99.90
57636;DHT22;43465;50.728;4.160;2022-12-13T09:06:15;0.00;99.90
57636;DHT22;43465;50.728;4.160;2022-12-13T09:08:43;-0.10;99.90
57636;DHT22;43465;50.728;4.160;2022-12-13T09:11:10;0.00;99.90
57636;DHT22;43465;50.728;4.160;2022-12-13T09:13:50;0.20;99.90
57636;DHT22;43465;50.728;4.160;2022-12-13T09:21:17;0.50;99.90
57636;DHT22;43465;50.728;4.160;2022-12-13T09:23:43;0.60;99.90
57636;DHT22;43465;50.728;4.160;2022-12-13T09:26:10;0.70;99.90
57636;DHT22;43465;50.728;4.160;2022-12-13T09:28:37;0.80;99.90
57636;DHT22;43465;50.728;4.160;2022-12-13T09:31:21;0.90;99.90
57636;DHT22;43465;50.728;4.160;2022-12-13T09:33:46;0.90;99.90
57636;DHT22;43465;50.728;4.160;2022-12-13T09:36:15;1.00;99.90
57636;DHT22;43465;50.728;4.160;2022-12-13T09:38:41;1.10;99.90
57636;DHT22;43465;50.728;4.160;2022-12-13T09:41:20;1.20;99.90
57636;DHT22;43465;50.728;4.160;2022-12-13T09:43:55;1.40;99.90
57636;DHT22;43465;50.728;4.160;2022-12-13T09:46:29;1.40;99.90
57636;DHT22;43465;50.728;4.160;2022-12-13T09:48:56;1.50;99.90
57636;DHT22;43465;50.728;4.160;2022-12-13T09:51:24;1.60;99.90
57636;DHT22;43465;50.728;4.160;2022-12-13T09:53:51;1.60;99.90
57636;DHT22;43465;50.728;4.160;2022-12-13T09:56:19;1.80;99.90
57636;DHT22;43465;50.728;4.160;2022-12-13T09:58:52;1.70;99.90
57636;DHT22;43465;50.728;4.160;2022-12-13T10:01:21;1.70;99.90
57636;DHT22;43465;50.728;4.160;2022-12-13T10:03:49;1.70;99.90
57636;DHT22;43465;50.728;4.160;2022-12-13T10:06:21;1.80;99.90
57636;DHT22;43465;50.728;4.160;2022-12-13T10:08:55;1.70;99.90
57636;DHT22;43465;50.728;4.160;2022-12-13T10:11:21;1.80;99.90
57636;DHT22;43465;50.728;4.160;2022-12-13T10:19:15;1.70;99.90
57636;DHT22;43465;50.728;4.160;2022-12-13T10:21:43;1.80;99.90
57636;DHT22;43465;50.728;4.160;2022-12-13T10:24:19;1.70;99.90
57636;DHT22;43465;50.728;4.160;2022-12-13T10:26:45;1.70;99.90
57636;DHT22;43465;50.728;4.160;2022-12-13T10:29:11;1.80;99.90
57636;DHT22;43465;50.728;4.160;2022-12-13T10:31:45;1.90;99.90
57636;DHT22;43465;50.728;4.160;2022-12-13T10:34:29;1.90;99.90
57636;DHT22;43465;50.728;4.160;2022-12-13T10:39:47;2.10;99.90
57636;DHT22;43465;50.728;4.160;2022-12-13T10:42:18;2.10;99.90
57636;DHT22;43465;50.728;4.160;2022-12-13T10:44:44;2.00;99.90
57636;DHT22;43465;50.728;4.160;2022-12-13T10:47:14;2.00;99.90
57636;DHT22;43465;50.728;4.160;2022-12-13T10:49:51;1.90;99.90
57636;DHT22;43465;50.728;4.160;2022-12-13T10:52:37;1.90;99.90
57636;DHT22;43465;50.728;4.160;2022-12-13T10:55:11;2.00;99.90
57636;DHT22;43465;50.728;4.160;2022-12-13T10:57:55;2.20;99.90
57636;DHT22;43465;50.728;4.160;2022-12-13T11:00:48;2.30;99.90
57636;DHT22;43465;50.728;4.160;2022-12-13T11:03:29;2.20;99.90
57636;DHT22;43465;50.728;4.160;2022-12-13T11:08:29;2.20;99.90
57636;DHT22;43465;50.728;4.160;2022-12-13T11:11:02;2.30;99.90
57636;DHT22;43465;50.728;4.160;2022-12-13T11:13:45;2.30;99.90
57636;DHT22;43465;50.728;4.160;2022-12-13T11:18:51;2.40;99.90
57636;DHT22;43465;50.728;4.160;2022-12-13T11:21:29;2.50;99.90
57636;DHT22;43465;50.728;4.160;2022-12-13T11:24:00;2.60;99.90
57636;DHT22;43465;50.728;4.160;2022-12-13T11:26:26;2.70;99.90
57636;DHT22;43465;50.728;4.160;2022-12-13T11:34:25;2.90;99.90
57636;DHT22;43465;50.728;4.160;2022-12-13T11:39:49;3.10;99.90
57636;DHT22;43465;50.728;4.160;2022-12-13T11:45:17;3.30;99.90
57636;DHT22;43465;50.728;4.160;2022-12-13T11:50:47;3.40;99.90
57636;DHT22;43465;50.728;4.160;2022-12-13T11:53:30;3.40;99.90
57636;DHT22;43465;50.728;4.160;2022-12-13T11:56:04;3.50;99.90
57636;DHT22;43465;50.728;4.160;2022-12-13T11:58:42;3.60;99.70
57636;DHT22;43465;50.728;4.160;2022-12-13T12:01:14;3.60;99.30
57636;DHT22;43465;50.728;4.160;2022-12-13T12:03:46;3.50;99.40
57636;DHT22;43465;50.728;4.160;2022-12-13T12:06:16;3.50;99.90
57636;DHT22;43465;50.728;4.160;2022-12-13T12:08:58;3.60;99.90
57636;DHT22;43465;50.728;4.160;2022-12-13T12:14:23;3.90;99.50
57636;DHT22;43465;50.728;4.160;2022-12-13T12:16:54;3.90;99.30
57636;DHT22;43465;50.728;4.160;2022-12-13T12:19:26;3.90;99.40
57636;DHT22;43465;50.728;4.160;2022-12-13T12:24:50;3.90;99.00
57636;DHT22;43465;50.728;4.160;2022-12-13T12:27:30;4.00;99.80
57636;DHT22;43465;50.728;4.160;2022-12-13T12:30:01;4.10;99.60
57636;DHT22;43465;50.728;4.160;2022-12-13T12:32:50;4.20;99.60
57636;DHT22;43465;50.728;4.160;2022-12-13T12:38:13;4.30;99.90
57636;DHT22;43465;50.728;4.160;2022-12-13T12:43:40;4.20;99.20
57636;DHT22;43465;50.728;4.160;2022-12-13T12:51:46;4.00;99.40
57636;DHT22;43465;50.728;4.160;2022-12-13T12:57:14;4.10;99.50
57636;DHT22;43465;50.728;4.160;2022-12-13T13:00:12;4.10;99.40
57636;DHT22;43465;50.728;4.160;2022-12-13T13:05:39;4.30;98.50
57636;DHT22;43465;50.728;4.160;2022-12-13T13:08:12;4.40;98.70
57636;DHT22;43465;50.728;4.160;2022-12-13T13:10:41;4.50;98.20
57636;DHT22;43465;50.728;4.160;2022-12-13T13:16:00;4.40;98.40
57636;DHT22;43465;50.728;4.160;2022-12-13T13:18:51;4.50;98.10
57636;DHT22;43465;50.728;4.160;2022-12-13T13:21:24;4.50;97.60
57636;DHT22;43465;50.728;4.160;2022-12-13T13:24:06;4.40;97.50
57636;DHT22;43465;50.728;4.160;2022-12-13T13:29:31;4.10;98.30
57636;DHT22;43465;50.728;4.160;2022-12-13T13:34:42;3.90;98.70
57636;DHT22;43465;50.728;4.160;2022-12-13T13:48:55;3.50;99.00
57636;DHT22;43465;50.728;4.160;2022-12-13T14:05:51;3.40;99.80
57636;DHT22;43465;50.728;4.160;2022-12-13T14:27:43;3.50;99.60
57636;DHT22;43465;50.728;4.160;2022-12-13T14:30:15;3.60;99.90
57636;DHT22;43465;50.728;4.160;2022-12-13T14:32:42;3.70;99.90
57636;DHT22;43465;50.728;4.160;2022-12-13T14:35:26;3.70;99.90
57636;DHT22;43465;50.728;4.160;2022-12-13T14:38:22;3.70;99.90
57636;DHT22;43465;50.728;4.160;2022-12-13T14:40:51;3.70;99.90
57636;DHT22;43465;50.728;4.160;2022-12-13T14:43:25;3.70;99.90
57636;DHT22;43465;50.728;4.160;2022-12-13T14:45:57;3.80;99.90
57636;DHT22;43465;50.728;4.160;2022-12-13T14:48:23;3.70;99.90
57636;DHT22;43465;50.728;4.160;2022-12-13T14:50:50;3.60;99.90
57636;DHT22;43465;50.728;4.160;2022-12-13T14:53:33;3.40;99.90
57636;DHT22;43465;50.728;4.160;2022-12-13T14:56:13;3.40;99.90
57636;DHT22;43465;50.728;4.160;2022-12-13T14:58:51;3.30;99.90
57636;DHT22;43465;50.728;4.160;2022-12-13T15:01:36;3.20;99.90
57636;DHT22;43465;50.728;4.160;2022-12-13T15:04:27;3.10;99.90
57636;DHT22;43465;50.728;4.160;2022-12-13T15:07:07;3.10;99.90
57636;DHT22;43465;50.728;4.160;2022-12-13T15:09:39;3.10;99.90
57636;DHT22;43465;50.728;4.160;2022-12-13T15:14:37;2.90;99.90
57636;DHT22;43465;50.728;4.160;2022-12-13T15:17:28;2.90;99.90
57636;DHT22;43465;50.728;4.160;2022-12-13T15:19:54;3.00;99.90
57636;DHT22;43465;50.728;4.160;2022-12-13T15:22:20;3.00;99.90
57636;DHT22;43465;50.728;4.160;2022-12-13T15:24:46;3.00;99.90
57636;DHT22;43465;50.728;4.160;2022-12-13T15:27:17;2.90;99.90
57636;DHT22;43465;50.728;4.160;2022-12-13T15:29:44;2.90;99.90
57636;DHT22;43465;50.728;4.160;2022-12-13T15:32:14;2.80;99.90
57636;DHT22;43465;50.728;4.160;2022-12-13T15:34:45;2.90;99.90
57636;DHT22;43465;50.728;4.160;2022-12-13T15:37:25;2.80;99.90
57636;DHT22;43465;50.728;4.160;2022-12-13T15:39:55;2.70;99.90
57636;DHT22;43465;50.728;4.160;2022-12-13T15:42:29;2.80;99.90
57636;DHT22;43465;50.728;4.160;2022-12-13T15:44:59;2.70;99.90
57636;DHT22;43465;50.728;4.160;2022-12-13T15:47:26;2.70;99.90
57636;DHT22;43465;50.728;4.160;2022-12-13T15:50:03;2.60;99.90
57636;DHT22;43465;50.728;4.160;2022-12-13T15:52:39;2.70;99.90
57636;DHT22;43465;50.728;4.160;2022-12-13T16:05:23;2.60;99.90
57636;DHT22;43465;50.728;4.160;2022-12-13T16:07:51;2.50;99.90
57636;DHT22;43465;50.728;4.160;2022-12-13T16:10:18;2.40;99.90
57636;DHT22;43465;50.728;4.160;2022-12-13T16:12:50;2.50;99.90
57636;DHT22;43465;50.728;4.160;2022-12-13T16:15:21;2.60;99.90
57636;DHT22;43465;50.728;4.160;2022-12-13T16:17:53;2.60;99.90
57636;DHT22;43465;50.728;4.160;2022-12-13T16:20:21;2.60;99.90
57636;DHT22;43465;50.728;4.160;2022-12-13T16:22:48;2.60;99.90
57636;DHT22;43465;50.728;4.160;2022-12-13T16:25:17;2.50;99.90
57636;DHT22;43465;50.728;4.160;2022-12-13T16:27:43;2.50;99.90
57636;DHT22;43465;50.728;4.160;2022-12-13T16:33:14;2.30;99.90
57636;DHT22;43465;50.728;4.160;2022-12-13T16:35:39;2.40;99.90
57636;DHT22;43465;50.728;4.160;2022-12-13T16:38:08;2.40;99.90
57636;DHT22;43465;50.728;4.160;2022-12-13T16:40:35;2.40;99.90
57636;DHT22;43465;50.728;4.160;2022-12-13T16:43:02;2.40;99.90
57636;DHT22;43465;50.728;4.160;2022-12-13T16:45:36;2.40;99.90
57636;DHT22;43465;50.728;4.160;2022-12-13T16:48:02;2.40;99.90
57636;DHT22;43465;50.728;4.160;2022-12-13T16:50:30;2.50;99.90
57636;DHT22;43465;50.728;4.160;2022-12-13T16:52:56;2.60;99.90
57636;DHT22;43465;50.728;4.160;2022-12-13T16:55:22;2.60;99.90
57636;DHT22;43465;50.728;4.160;2022-12-13T16:58:02;2.50;99.90
57636;DHT22;43465;50.728;4.160;2022-12-13T17:00:28;2.50;99.90
57636;DHT22;43465;50.728;4.160;2022-12-13T17:02:56;2.40;99.90
57636;DHT22;43465;50.728;4.160;2022-12-13T17:05:24;2.50;99.90
57636;DHT22;43465;50.728;4.160;2022-12-13T17:07:50;2.40;99.90
57636;DHT22;43465;50.728;4.160;2022-12-13T17:10:16;2.40;99.90
57636;DHT22;43465;50.728;4.160;2022-12-13T17:12:42;2.50;99.90
57636;DHT22;43465;50.728;4.160;2022-12-13T17:15:09;2.40;99.90
57636;DHT22;43465;50.728;4.160;2022-12-13T17:17:39;2.40;99.90
57636;DHT22;43465;50.728;4.160;2022-12-13T17:20:07;2.40;99.90
57636;DHT22;43465;50.728;4.160;2022-12-13T17:22:34;2.50;99.90
57636;DHT22;43465;50.728;4.160;2022-12-13T17:25:00;2.50;99.90
57636;DHT22;43465;50.728;4.160;2022-12-13T17:27:26;2.60;99.90
57636;DHT22;43465;50.728;4.160;2022-12-13T17:29:52;2.50;99.90
57636;DHT22;43465;50.728;4.160;2022-12-13T17:32:18;2.50;99.90
57636;DHT22;43465;50.728;4.160;2022-12-13T17:34:44;2.50;99.90
57636;DHT22;43465;50.728;4.160;2022-12-13T17:37:09;2.60;99.90
57636;DHT22;43465;50.728;4.160;2022-12-13T17:39:35;2.60;99.90
57636;DHT22;43465;50.728;4.160;2022-12-13T17:42:01;2.50;99.90
57636;DHT22;43465;50.728;4.160;2022-12-13T17:44:26;2.60;99.90
57636;DHT22;43465;50.728;4.160;2022-12-13T17:46:52;2.50;99.90
57636;DHT22;43465;50.728;4.160;2022-12-13T17:49:18;2.40;99.90
57636;DHT22;43465;50.728;4.160;2022-12-13T17:51:44;2.50;99.90
57636;DHT22;43465;50.728;4.160;2022-12-13T17:54:10;2.50;99.90
57636;DHT22;43465;50.728;4.160;2022-12-13T17:56:37;2.40;99.90
57636;DHT22;43465;50.728;4.160;2022-12-13T17:59:03;2.40;99.90
57636;DHT22;43465;50.728;4.160;2022-12-13T18:01:29;2.30;99.90
57636;DHT22;43465;50.728;4.160;2022-12-13T18:03:56;2.20;99.90
57636;DHT22;43465;50.728;4.160;2022-12-13T18:06:23;2.00;99.90
57636;DHT22;43465;50.728;4.160;2022-12-13T18:08:49;1.80;99.90
57636;DHT22;43465;50.728;4.160;2022-12-13T18:11:16;1.80;99.90
57636;DHT22;43465;50.728;4.160;2022-12-13T18:13:42;1.80;99.90